sensor_id;sensor_type;location;lat;lon;timestamp;pressure;altitude;pressure_sealevel;temperature;humidity
9110;BME280;4590;51.462;6.692;2023-03-01T00:00:39;102863.59;;;2.53;50.27
9110;BME280;4590;51.462;6.692;2023-03-01T00:03:04;102863.81;;;2.51;50.46
9110;BME280;4590;51.462;6.692;2023-03-01T00:05:30;102863.19;;;2.49;50.16
9110;BME280;4590;51.462;6.692;2023-03-01T00:07:55;102866.09;;;2.47;50.48
9110;BME280;4590;51.462;6.692;2023-03-01T00:10:21;102872.38;;;2.48;50.46
9110;BME280;4590;51.462;6.692;2023-03-01T00:12:46;102870.25;;;2.43;51.04
9110;BME280;4590;51.462;6.692;2023-03-01T00:15:11;102867.94;;;2.40;50.93
9110;BME280;4590;51.462;6.692;2023-03-01T00:17:37;102864.38;;;2.40;50.45
9110;BME280;4590;51.462;6.692;2023-03-01T00:20:03;102865.59;;;2.37;50.37
9110;BME280;4590;51.462;6.692;2023-03-01T00:22:28;102864.75;;;2.37;50.49
9110;BME280;4590;51.462;6.692;2023-03-01T00:24:54;102859.94;;;2.32;51.29
9110;BME280;4590;51.462;6.692;2023-03-01T00:27:19;102851.59;;;2.34;50.85
9110;BME280;4590;51.462;6.692;2023-03-01T00:29:44;102853.47;;;2.33;51.00
9110;BME280;4590;51.462;6.692;2023-03-01T00:32:10;102846.75;;;2.29;51.22
9110;BME280;4590;51.462;6.692;2023-03-01T00:34:35;102853.03;;;2.30;51.35
9110;BME280;4590;51.462;6.692;2023-03-01T00:37:00;102847.59;;;2.30;51.17
9110;BME280;4590;51.462;6.692;2023-03-01T00:39:30;102847.59;;;2.30;50.93
9110;BME280;4590;51.462;6.692;2023-03-01T00:41:56;102841.34;;;2.29;51.04
9110;BME280;4590;51.462;6.692;2023-03-01T00:44:21;102850.72;;;2.27;51.09
9110;BME280;4590;51.462;6.692;2023-03-01T00:46:46;102836.50;;;2.25;51.52
9110;BME280;4590;51.462;6.692;2023-03-01T00:49:13;102837.34;;;2.25;51.69
9110;BME280;4590;51.462;6.692;2023-03-01T00:51:39;102831.25;;;2.23;51.30
9110;BME280;4590;51.462;6.692;2023-03-01T00:54:08;102826.84;;;2.22;51.51
9110;BME280;4590;51.462;6.692;2023-03-01T00:56:33;102831.69;;;2.20;50.87
9110;BME280;4590;51.462;6.692;2023-03-01T00:58:59;102819.13;;;2.19;51.86
9110;BME280;4590;51.462;6.692;2023-03-01T01:01:26;102824.75;;;2.18;51.51
9110;BME280;4590;51.462;6.692;2023-03-01T01:04:06;102816.56;;;2.11;51.42
9110;BME280;4590;51.462;6.692;2023-03-01T01:06:37;102817.78;;;2.08;52.07
9110;BME280;4590;51.462;6.692;2023-03-01T01:09:05;102812.16;;;2.10;51.78
9110;BME280;4590;51.462;6.692;2023-03-01T01:11:32;102825.56;;;2.11;52.05
9110;BME280;4590;51.462;6.692;2023-03-01T01:13:58;102817.22;;;2.13;51.82
9110;BME280;4590;51.462;6.692;2023-03-01T01:16:26;102808.22;;;2.13;52.29
9110;BME280;4590;51.462;6.692;2023-03-01T01:18:52;102804.88;;;2.10;52.08
9110;BME280;4590;51.462;6.692;2023-03-01T01:21:20;102805.25;;;2.07;52.38
9110;BME280;4590;51.462;6.692;2023-03-01T01:23:46;102809.00;;;2.06;52.54
9110;BME280;4590;51.462;6.692;2023-03-01T01:26:21;102796.06;;;2.02;52.36
9110;BME280;4590;51.462;6.692;2023-03-01T01:28:47;102796.91;;;2.02;52.19
9110;BME280;4590;51.462;6.692;2023-03-01T01:31:12;102794.19;;;2.02;52.35
9110;BME280;4590;51.462;6.692;2023-03-01T01:33:38;102784.34;;;2.01;52.07
9110;BME280;4590;51.462;6.692;2023-03-01T01:36:07;102781.38;;;1.96;52.75
9110;BME280;4590;51.462;6.692;2023-03-01T01:38:34;102777.00;;;1.95;52.01
9110;BME280;4590;51.462;6.692;2023-03-01T01:40:59;102777.00;;;1.95;51.77
9110;BME280;4590;51.462;6.692;2023-03-01T01:43:27;102779.91;;;1.94;51.81
9110;BME280;4590;51.462;6.692;2023-03-01T01:45:59;102774.66;;;1.86;52.32
9110;BME280;4590;51.462;6.692;2023-03-01T01:48:32;102775.06;;;1.89;52.59
9110;BME280;4590;51.462;6.692;2023-03-01T01:51:08;102770.91;;;1.87;52.37
9110;BME280;4590;51.462;6.692;2023-03-01T01:53:35;102772.78;;;1.86;53.05
9110;BME280;4590;51.462;6.692;2023-03-01T01:56:01;102770.16;;;1.71;54.29
9110;BME280;4590;51.462;6.692;2023-03-01T01:58:28;102768.31;;;1.79;52.49
9110;BME280;4590;51.462;6.692;2023-03-01T02:00:54;102771.22;;;1.77;52.55
9110;BME280;4590;51.462;6.692;2023-03-01T02:03:24;102770.59;;;1.75;52.95
9110;BME280;4590;51.462;6.692;2023-03-01T02:08:19;102774.13;;;1.75;52.78
9110;BME280;4590;51.462;6.692;2023-03-01T02:10:45;102780.59;;;1.74;53.06
9110;BME280;4590;51.462;6.692;2023-03-01T02:13:12;102778.94;;;1.73;52.45
9110;BME280;4590;51.462;6.692;2023-03-01T02:15:39;102775.78;;;1.70;53.32
9110;BME280;4590;51.462;6.692;2023-03-01T02:18:06;102771.59;;;1.67;53.26
9110;BME280;4590;51.462;6.692;2023-03-01T02:23:36;102762.41;;;1.68;52.47
9110;BME280;4590;51.462;6.692;2023-03-01T02:26:23;102754.03;;;1.63;52.97
9110;BME280;4590;51.462;6.692;2023-03-01T02:28:54;102749.03;;;1.67;53.06
9110;BME280;4590;51.462;6.692;2023-03-01T02:31:20;102759.06;;;1.66;52.65
9110;BME280;4590;51.462;6.692;2023-03-01T02:34:05;102753.44;;;1.68;53.25
9110;BME280;4590;51.462;6.692;2023-03-01T02:36:36;102749.50;;;1.70;52.90
9110;BME280;4590;51.462;6.692;2023-03-01T02:39:05;102747.84;;;1.76;52.66
9110;BME280;4590;51.462;6.692;2023-03-01T02:41:35;102758.31;;;1.79;52.74
9110;BME280;4590;51.462;6.692;2023-03-01T02:44:01;102742.03;;;1.79;53.03
9110;BME280;4590;51.462;6.692;2023-03-01T02:46:26;102747.25;;;1.81;53.21
9110;BME280;4590;51.462;6.692;2023-03-01T02:48:56;102747.25;;;1.81;52.39
9110;BME280;4590;51.462;6.692;2023-03-01T02:51:31;102747.44;;;1.79;52.71
9110;BME280;4590;51.462;6.692;2023-03-01T02:56:45;102748.88;;;1.75;53.09
9110;BME280;4590;51.462;6.692;2023-03-01T02:59:14;102754.09;;;1.70;52.43
9110;BME280;4590;51.462;6.692;2023-03-01T03:01:40;102754.88;;;1.64;53.08
9110;BME280;4590;51.462;6.692;2023-03-01T03:04:09;102757.97;;;1.61;52.84
9110;BME280;4590;51.462;6.692;2023-03-01T03:06:35;102763.59;;;1.59;53.19
9110;BME280;4590;51.462;6.692;2023-03-01T03:09:01;102752.13;;;1.57;53.30
9110;BME280;4590;51.462;6.692;2023-03-01T03:11:26;102755.81;;;1.50;53.16
9110;BME280;4590;51.462;6.692;2023-03-01T03:13:52;102760.31;;;1.42;53.21
9110;BME280;4590;51.462;6.692;2023-03-01T03:16:18;102752.19;;;1.42;53.45
9110;BME280;4590;51.462;6.692;2023-03-01T03:18:43;102752.41;;;1.41;53.47
9110;BME280;4590;51.462;6.692;2023-03-01T03:21:11;102753.44;;;1.40;53.12
9110;BME280;4590;51.462;6.692;2023-03-01T03:23:36;102757.56;;;1.36;53.57
9110;BME280;4590;51.462;6.692;2023-03-01T03:26:03;102750.28;;;1.36;53.81
9110;BME280;4590;51.462;6.692;2023-03-01T03:28:32;102748.78;;;1.34;53.69
9110;BME280;4590;51.462;6.692;2023-03-01T03:31:00;102744.84;;;1.36;53.31
9110;BME280;4590;51.462;6.692;2023-03-01T03:33:29;102745.88;;;1.35;53.83
9110;BME280;4590;51.462;6.692;2023-03-01T03:35:54;102745.44;;;1.32;53.83
9110;BME280;4590;51.462;6.692;2023-03-01T03:38:20;102750.41;;;1.28;53.61
9110;BME280;4590;51.462;6.692;2023-03-01T03:41:02;102741.59;;;1.20;54.34
9110;BME280;4590;51.462;6.692;2023-03-01T03:43:28;102742.22;;;1.22;54.15
9110;BME280;4590;51.462;6.692;2023-03-01T03:45:53;102740.56;;;1.21;53.72
9110;BME280;4590;51.462;6.692;2023-03-01T03:48:19;102740.56;;;1.21;53.67
9110;BME280;4590;51.462;6.692;2023-03-01T03:50:50;102739.72;;;1.20;53.96
9110;BME280;4590;51.462;6.692;2023-03-01T03:53:16;102731.59;;;1.20;53.92
9110;BME280;4590;51.462;6.692;2023-03-01T03:55:41;102731.78;;;1.19;53.64
9110;BME280;4590;51.462;6.692;2023-03-01T03:58:09;102731.31;;;1.15;53.71
9110;BME280;4590;51.462;6.692;2023-03-01T04:00:43;102725.66;;;1.10;54.28
9110;BME280;4590;51.462;6.692;2023-03-01T04:03:10;102724.81;;;1.10;54.18
9110;BME280;4590;51.462;6.692;2023-03-01T04:05:36;102718.75;;;1.08;54.18
9110;BME280;4590;51.462;6.692;2023-03-01T04:08:02;102717.66;;;1.02;54.22
9110;BME280;4590;51.462;6.692;2023-03-01T04:10:43;102716.34;;;0.98;54.47
9110;BME280;4590;51.462;6.692;2023-03-01T04:13:12;102709.06;;;0.98;54.37
9110;BME280;4590;51.462;6.692;2023-03-01T04:15:38;102696.34;;;0.99;54.14
9110;BME280;4590;51.462;6.692;2023-03-01T04:18:04;102696.34;;;0.99;53.81
9110;BME280;4590;51.462;6.692;2023-03-01T04:20:32;102706.16;;;1.00;54.36
9110;BME280;4590;51.462;6.692;2023-03-01T04:25:48;102704.69;;;0.97;54.66
9110;BME280;4590;51.462;6.692;2023-03-01T04:28:20;102715.31;;;0.99;53.94
9110;BME280;4590;51.462;6.692;2023-03-01T04:30:46;102708.03;;;0.99;53.98
9110;BME280;4590;51.462;6.692;2023-03-01T04:33:11;102703.00;;;0.96;54.27
9110;BME280;4590;51.462;6.692;2023-03-01T04:35:37;102710.09;;;0.97;54.40
9110;BME280;4590;51.462;6.692;2023-03-01T04:38:04;102702.59;;;0.99;54.50
9110;BME280;4590;51.462;6.692;2023-03-01T04:40:30;102715.13;;;1.00;54.22
9110;BME280;4590;51.462;6.692;2023-03-01T04:42:55;102701.53;;;0.94;55.17
9110;BME280;4590;51.462;6.692;2023-03-01T04:45:20;102706.72;;;0.95;55.07
9110;BME280;4590;51.462;6.692;2023-03-01T04:47:46;102705.09;;;0.94;54.54
9110;BME280;4590;51.462;6.692;2023-03-01T04:50:14;102697.75;;;0.95;54.56
9110;BME280;4590;51.462;6.692;2023-03-01T04:52:40;102708.41;;;0.96;54.75
9110;BME280;4590;51.462;6.692;2023-03-01T04:55:06;102711.53;;;0.93;54.76
9110;BME280;4590;51.462;6.692;2023-03-01T04:57:31;102694.63;;;0.91;54.96
9110;BME280;4590;51.462;6.692;2023-03-01T04:59:57;102695.19;;;0.87;54.89
9110;BME280;4590;51.462;6.692;2023-03-01T05:02:22;102703.53;;;0.85;54.60
9110;BME280;4590;51.462;6.692;2023-03-01T05:04:48;102696.63;;;0.83;54.90
9110;BME280;4590;51.462;6.692;2023-03-01T05:07:13;102687.84;;;0.81;55.41
9110;BME280;4590;51.462;6.692;2023-03-01T05:09:45;102688.88;;;0.80;55.00
9110;BME280;4590;51.462;6.692;2023-03-01T05:12:10;102689.00;;;0.72;55.50
9110;BME280;4590;51.462;6.692;2023-03-01T05:14:35;102678.19;;;0.72;55.54
9110;BME280;4590;51.462;6.692;2023-03-01T05:17:00;102693.22;;;0.74;55.47
9110;BME280;4590;51.462;6.692;2023-03-01T05:19:29;102690.13;;;0.77;55.25
9110;BME280;4590;51.462;6.692;2023-03-01T05:21:56;102684.91;;;0.76;54.82
9110;BME280;4590;51.462;6.692;2023-03-01T05:24:30;102683.78;;;0.70;55.68
9110;BME280;4590;51.462;6.692;2023-03-01T05:26:55;102676.88;;;0.67;55.43
9110;BME280;4590;51.462;6.692;2023-03-01T05:29:22;102686.41;;;0.63;55.54
9110;BME280;4590;51.462;6.692;2023-03-01T05:31:58;102672.56;;;0.52;55.83
9110;BME280;4590;51.462;6.692;2023-03-01T05:34:32;102678.44;;;0.55;56.03
9110;BME280;4590;51.462;6.692;2023-03-01T05:36:57;102664.25;;;0.53;55.45
9110;BME280;4590;51.462;6.692;2023-03-01T05:39:25;102670.03;;;0.50;55.79
9110;BME280;4590;51.462;6.692;2023-03-01T05:41:55;102672.09;;;0.48;55.88
9110;BME280;4590;51.462;6.692;2023-03-01T05:44:21;102662.50;;;0.46;56.08
9110;BME280;4590;51.462;6.692;2023-03-01T05:46:46;102661.13;;;0.35;56.37
9110;BME280;4590;51.462;6.692;2023-03-01T05:49:14;102678.88;;;0.38;56.17
9110;BME280;4590;51.462;6.692;2023-03-01T05:51:40;102671.25;;;0.26;56.81
9110;BME280;4590;51.462;6.692;2023-03-01T05:54:06;102668.81;;;0.31;56.53
9110;BME280;4590;51.462;6.692;2023-03-01T05:56:36;102674.25;;;0.31;56.10
9110;BME280;4590;51.462;6.692;2023-03-01T05:59:02;102661.44;;;0.25;56.29
9110;BME280;4590;51.462;6.692;2023-03-01T06:01:28;102675.63;;;0.27;56.43
9110;BME280;4590;51.462;6.692;2023-03-01T06:03:55;102668.91;;;0.23;56.61
9110;BME280;4590;51.462;6.692;2023-03-01T06:06:21;102673.50;;;0.23;56.71
9110;BME280;4590;51.462;6.692;2023-03-01T06:08:47;102677.03;;;0.23;56.63
9110;BME280;4590;51.462;6.692;2023-03-01T06:11:12;102678.06;;;0.22;56.58
9110;BME280;4590;51.462;6.692;2023-03-01T06:13:37;102682.84;;;0.20;56.95
9110;BME280;4590;51.462;6.692;2023-03-01T06:16:06;102678.72;;;0.24;56.26
9110;BME280;4590;51.462;6.692;2023-03-01T06:18:32;102683.47;;;0.22;56.66
9110;BME280;4590;51.462;6.692;2023-03-01T06:20:57;102673.13;;;0.26;56.65
9110;BME280;4590;51.462;6.692;2023-03-01T06:23:23;102672.66;;;0.22;56.27
9110;BME280;4590;51.462;6.692;2023-03-01T06:25:48;102674.72;;;0.20;56.86
9110;BME280;4590;51.462;6.692;2023-03-01T06:28:14;102667.44;;;0.21;56.61
9110;BME280;4590;51.462;6.692;2023-03-01T06:30:39;102654.91;;;0.20;56.55
9110;BME280;4590;51.462;6.692;2023-03-01T06:33:05;102659.13;;;0.22;56.64
9110;BME280;4590;51.462;6.692;2023-03-01T06:35:30;102652.16;;;0.13;56.78
9110;BME280;4590;51.462;6.692;2023-03-01T06:37:56;102658.84;;;0.17;56.53
9110;BME280;4590;51.462;6.692;2023-03-01T06:40:22;102661.97;;;0.14;56.60
9110;BME280;4590;51.462;6.692;2023-03-01T06:42:49;102656.72;;;0.13;56.65
9110;BME280;4590;51.462;6.692;2023-03-01T06:45:16;102667.38;;;0.14;56.99
9110;BME280;4590;51.462;6.692;2023-03-01T06:47:41;102662.25;;;0.05;58.01
9110;BME280;4590;51.462;6.692;2023-03-01T06:50:07;102664.66;;;0.14;56.66
9110;BME280;4590;51.462;6.692;2023-03-01T06:52:33;102671.09;;;0.13;56.92
9110;BME280;4590;51.462;6.692;2023-03-01T06:54:58;102674.00;;;0.12;57.11
9110;BME280;4590;51.462;6.692;2023-03-01T06:57:23;102676.91;;;0.10;57.29
9110;BME280;4590;51.462;6.692;2023-03-01T06:59:49;102671.75;;;0.15;57.43
9110;BME280;4590;51.462;6.692;2023-03-01T07:02:14;102676.94;;;0.17;57.33
9110;BME280;4590;51.462;6.692;2023-03-01T07:04:40;102670.97;;;0.21;56.93
9110;BME280;4590;51.462;6.692;2023-03-01T07:07:05;102669.47;;;0.19;56.89
9110;BME280;4590;51.462;6.692;2023-03-01T07:09:31;102671.16;;;0.20;57.03
9110;BME280;4590;51.462;6.692;2023-03-01T07:11:57;102675.75;;;0.19;57.26
9110;BME280;4590;51.462;6.692;2023-03-01T07:14:22;102672.66;;;0.22;57.28
9110;BME280;4590;51.462;6.692;2023-03-01T07:16:49;102676.28;;;0.29;56.99
9110;BME280;4590;51.462;6.692;2023-03-01T07:19:15;102685.69;;;0.33;57.21
9110;BME280;4590;51.462;6.692;2023-03-01T07:21:40;102676.16;;;0.38;57.56
9110;BME280;4590;51.462;6.692;2023-03-01T07:24:06;102680.16;;;0.42;57.51
9110;BME280;4590;51.462;6.692;2023-03-01T07:26:32;102671.25;;;0.48;57.62
9110;BME280;4590;51.462;6.692;2023-03-01T07:29:02;102674.88;;;0.55;57.30
9110;BME280;4590;51.462;6.692;2023-03-01T07:31:28;102667.69;;;0.62;57.64
9110;BME280;4590;51.462;6.692;2023-03-01T07:33:54;102663.78;;;0.71;57.21
9110;BME280;4590;51.462;6.692;2023-03-01T07:36:19;102672.03;;;0.84;57.38
9110;BME280;4590;51.462;6.692;2023-03-01T07:38:45;102664.56;;;0.86;57.28
9110;BME280;4590;51.462;6.692;2023-03-01T07:41:10;102652.97;;;0.99;57.55
9110;BME280;4590;51.462;6.692;2023-03-01T07:43:36;102650.56;;;1.11;56.86
9110;BME280;4590;51.462;6.692;2023-03-01T07:46:02;102656.09;;;1.24;56.85
9110;BME280;4590;51.462;6.692;2023-03-01T07:48:28;102650.97;;;1.35;56.80
9110;BME280;4590;51.462;6.692;2023-03-01T07:50:53;102653.31;;;1.45;56.67
9110;BME280;4590;51.462;6.692;2023-03-01T07:53:18;102648.56;;;1.54;57.06
9110;BME280;4590;51.462;6.692;2023-03-01T07:55:43;102653.44;;;1.65;56.72
9110;BME280;4590;51.462;6.692;2023-03-01T07:58:09;102644.72;;;1.76;56.17
9110;BME280;4590;51.462;6.692;2023-03-01T08:00:34;102650.19;;;1.89;55.92
9110;BME280;4590;51.462;6.692;2023-03-01T08:03:00;102646.72;;;2.02;56.02
9110;BME280;4590;51.462;6.692;2023-03-01T08:05:26;102653.03;;;2.16;55.69
9110;BME280;4590;51.462;6.692;2023-03-01T08:07:52;102644.91;;;2.29;55.50
9110;BME280;4590;51.462;6.692;2023-03-01T08:10:17;102663.97;;;2.42;54.83
9110;BME280;4590;51.462;6.692;2023-03-01T08:12:42;102649.78;;;2.60;55.14
9110;BME280;4590;51.462;6.692;2023-03-01T08:15:08;102657.13;;;2.72;55.18
9110;BME280;4590;51.462;6.692;2023-03-01T08:17:34;102659.66;;;2.94;55.07
9110;BME280;4590;51.462;6.692;2023-03-01T08:19:59;102664.66;;;2.90;53.34
9110;BME280;4590;51.462;6.692;2023-03-01T08:22:24;102651.69;;;3.12;53.60
9110;BME280;4590;51.462;6.692;2023-03-01T08:24:50;102653.97;;;3.22;53.55
9110;BME280;4590;51.462;6.692;2023-03-01T08:27:16;102650.41;;;3.41;53.56
9110;BME280;4590;51.462;6.692;2023-03-01T08:29:41;102645.31;;;3.64;53.50
9110;BME280;4590;51.462;6.692;2023-03-01T08:32:07;102642.56;;;3.71;52.86
9110;BME280;4590;51.462;6.692;2023-03-01T08:34:32;102643.97;;;3.86;52.57
9110;BME280;4590;51.462;6.692;2023-03-01T08:37:00;102644.34;;;4.03;52.51
9110;BME280;4590;51.462;6.692;2023-03-01T08:39:26;102636.94;;;4.17;51.95
9110;BME280;4590;51.462;6.692;2023-03-01T08:41:51;102627.84;;;4.30;51.72
9110;BME280;4590;51.462;6.692;2023-03-01T08:44:16;102626.50;;;4.45;51.76
9110;BME280;4590;51.462;6.692;2023-03-01T08:46:42;102622.91;;;4.51;51.13
9110;BME280;4590;51.462;6.692;2023-03-01T08:49:12;102636.97;;;4.48;50.53
9110;BME280;4590;51.462;6.692;2023-03-01T08:51:37;102626.69;;;4.75;50.74
9110;BME280;4590;51.462;6.692;2023-03-01T08:54:04;102626.66;;;4.82;49.78
9110;BME280;4590;51.462;6.692;2023-03-01T08:56:29;102628.81;;;4.98;49.88
9110;BME280;4590;51.462;6.692;2023-03-01T08:58:55;102621.53;;;5.17;50.05
9110;BME280;4590;51.462;6.692;2023-03-01T09:01:20;102622.44;;;5.29;49.45
9110;BME280;4590;51.462;6.692;2023-03-01T09:03:46;102618.06;;;5.46;48.91
9110;BME280;4590;51.462;6.692;2023-03-01T09:06:11;102621.94;;;5.57;48.72
9110;BME280;4590;51.462;6.692;2023-03-01T09:08:38;102616.84;;;5.79;47.57
9110;BME280;4590;51.462;6.692;2023-03-01T09:11:06;102617.00;;;6.02;48.21
9110;BME280;4590;51.462;6.692;2023-03-01T09:13:32;102616.34;;;6.18;47.42
9110;BME280;4590;51.462;6.692;2023-03-01T09:15:59;102611.31;;;6.33;47.03
9110;BME280;4590;51.462;6.692;2023-03-01T09:18:25;102608.75;;;5.90;43.05
9110;BME280;4590;51.462;6.692;2023-03-01T09:20:50;102603.25;;;5.72;45.83
9110;BME280;4590;51.462;6.692;2023-03-01T09:23:15;102604.94;;;6.10;45.10
9110;BME280;4590;51.462;6.692;2023-03-01T09:25:40;102604.88;;;6.28;44.43
9110;BME280;4590;51.462;6.692;2023-03-01T09:28:06;102597.44;;;6.47;44.68
9110;BME280;4590;51.462;6.692;2023-03-01T09:30:31;102605.41;;;6.48;44.25
9110;BME280;4590;51.462;6.692;2023-03-01T09:32:57;102599.47;;;6.51;44.00
9110;BME280;4590;51.462;6.692;2023-03-01T09:35:22;102604.69;;;6.11;43.40
9110;BME280;4590;51.462;6.692;2023-03-01T09:37:48;102585.19;;;6.08;42.75
9110;BME280;4590;51.462;6.692;2023-03-01T09:40:21;102596.38;;;6.48;42.27
9110;BME280;4590;51.462;6.692;2023-03-01T09:42:56;102587.59;;;6.57;41.86
9110;BME280;4590;51.462;6.692;2023-03-01T09:45:39;102590.72;;;6.73;42.29
9110;BME280;4590;51.462;6.692;2023-03-01T09:48:13;102585.56;;;6.53;41.78
9110;BME280;4590;51.462;6.692;2023-03-01T09:50:42;102587.63;;;6.81;42.02
9110;BME280;4590;51.462;6.692;2023-03-01T09:53:16;102579.72;;;6.49;41.36
9110;BME280;4590;51.462;6.692;2023-03-01T09:58:33;102570.38;;;6.57;40.85
9110;BME280;4590;51.462;6.692;2023-03-01T10:01:10;102570.66;;;6.37;42.13
9110;BME280;4590;51.462;6.692;2023-03-01T10:04:00;102571.81;;;6.71;40.89
9110;BME280;4590;51.462;6.692;2023-03-01T10:06:29;102577.38;;;6.64;41.39
9110;BME280;4590;51.462;6.692;2023-03-01T10:09:10;102576.56;;;6.22;40.62
9110;BME280;4590;51.462;6.692;2023-03-01T10:11:39;102571.88;;;6.41;41.30
9110;BME280;4590;51.462;6.692;2023-03-01T10:14:19;102566.56;;;6.58;40.30
9110;BME280;4590;51.462;6.692;2023-03-01T10:16:54;102577.00;;;6.49;40.56
9110;BME280;4590;51.462;6.692;2023-03-01T10:21:51;102562.75;;;6.71;40.29
9110;BME280;4590;51.462;6.692;2023-03-01T10:24:19;102556.81;;;6.85;40.71
9110;BME280;4590;51.462;6.692;2023-03-01T10:26:57;102543.75;;;6.76;39.46
9110;BME280;4590;51.462;6.692;2023-03-01T10:29:37;102555.56;;;6.34;39.04
9110;BME280;4590;51.462;6.692;2023-03-01T10:32:04;102559.94;;;6.24;39.84
9110;BME280;4590;51.462;6.692;2023-03-01T10:34:33;102552.06;;;6.16;40.35
9110;BME280;4590;51.462;6.692;2023-03-01T10:37:17;102541.94;;;6.58;40.31
9110;BME280;4590;51.462;6.692;2023-03-01T10:40:05;102540.88;;;6.94;39.36
9110;BME280;4590;51.462;6.692;2023-03-01T10:42:46;102534.34;;;7.07;39.55
9110;BME280;4590;51.462;6.692;2023-03-01T10:47:44;102522.19;;;7.14;39.76
9110;BME280;4590;51.462;6.692;2023-03-01T10:50:29;102525.78;;;7.03;38.67
9110;BME280;4590;51.462;6.692;2023-03-01T10:52:59;102517.81;;;7.01;39.02
9110;BME280;4590;51.462;6.692;2023-03-01T10:55:33;102508.97;;;7.11;38.93
9110;BME280;4590;51.462;6.692;2023-03-01T10:58:18;102505.91;;;7.08;38.05
9110;BME280;4590;51.462;6.692;2023-03-01T11:00:55;102510.16;;;7.15;38.29
9110;BME280;4590;51.462;6.692;2023-03-01T11:03:29;102505.06;;;6.84;37.64
9110;BME280;4590;51.462;6.692;2023-03-01T11:08:34;102499.69;;;7.24;38.14
9110;BME280;4590;51.462;6.692;2023-03-01T11:13:46;102487.50;;;7.31;38.55
9110;BME280;4590;51.462;6.692;2023-03-01T11:16:14;102495.31;;;7.51;38.72
9110;BME280;4590;51.462;6.692;2023-03-01T11:18:39;102480.88;;;7.56;37.59
9110;BME280;4590;51.462;6.692;2023-03-01T11:21:06;102487.47;;;7.83;37.72
9110;BME280;4590;51.462;6.692;2023-03-01T11:23:34;102480.31;;;7.82;37.51
9110;BME280;4590;51.462;6.692;2023-03-01T11:26:05;102476.53;;;7.71;36.74
9110;BME280;4590;51.462;6.692;2023-03-01T11:28:32;102488.44;;;7.77;37.01
9110;BME280;4590;51.462;6.692;2023-03-01T11:31:04;102477.63;;;7.30;36.79
9110;BME280;4590;51.462;6.692;2023-03-01T11:36:06;102456.16;;;7.96;36.81
9110;BME280;4590;51.462;6.692;2023-03-01T11:38:35;102454.06;;;8.03;36.71
9110;BME280;4590;51.462;6.692;2023-03-01T11:41:07;102461.06;;;8.10;37.12
9110;BME280;4590;51.462;6.692;2023-03-01T11:43:53;102465.59;;;7.88;35.09
9110;BME280;4590;51.462;6.692;2023-03-01T11:49:15;102450.75;;;7.56;35.78
9110;BME280;4590;51.462;6.692;2023-03-01T11:55:05;102474.25;;;7.52;36.37
9110;BME280;4590;51.462;6.692;2023-03-01T11:58:14;102473.41;;;7.51;36.35
9110;BME280;4590;51.462;6.692;2023-03-01T12:06:31;102458.59;;;7.64;37.68
9110;BME280;4590;51.462;6.692;2023-03-01T12:12:11;102454.72;;;7.77;38.03
9110;BME280;4590;51.462;6.692;2023-03-01T12:15:04;102450.25;;;7.59;36.83
9110;BME280;4590;51.462;6.692;2023-03-01T12:20:48;102439.72;;;7.51;37.29
9110;BME280;4590;51.462;6.692;2023-03-01T12:23:49;102438.19;;;7.43;36.68
9110;BME280;4590;51.462;6.692;2023-03-01T12:35:11;102419.53;;;7.28;38.02
9110;BME280;4590;51.462;6.692;2023-03-01T12:48:24;102394.41;;;7.31;38.24
9110;BME280;4590;51.462;6.692;2023-03-01T12:50:54;102395.19;;;7.44;37.79
9110;BME280;4590;51.462;6.692;2023-03-01T12:53:27;102382.56;;;7.43;38.13
9110;BME280;4590;51.462;6.692;2023-03-01T12:55:58;102387.09;;;7.49;38.37
9110;BME280;4590;51.462;6.692;2023-03-01T13:01:41;102386.72;;;7.45;37.90
9110;BME280;4590;51.462;6.692;2023-03-01T13:04:25;102377.84;;;7.38;37.88
9110;BME280;4590;51.462;6.692;2023-03-01T13:09:36;102384.16;;;7.38;38.14
9110;BME280;4590;51.462;6.692;2023-03-01T13:15:37;102373.28;;;7.44;37.53
9110;BME280;4590;51.462;6.692;2023-03-01T13:18:27;102377.16;;;7.31;38.78
9110;BME280;4590;51.462;6.692;2023-03-01T13:20:55;102372.13;;;7.39;38.49
9110;BME280;4590;51.462;6.692;2023-03-01T13:33:49;102344.19;;;7.54;37.96
9110;BME280;4590;51.462;6.692;2023-03-01T13:49:55;102324.19;;;7.70;37.25
9110;BME280;4590;51.462;6.692;2023-03-01T13:54:58;102320.63;;;7.87;38.54
9110;BME280;4590;51.462;6.692;2023-03-01T13:57:30;102319.22;;;7.84;37.89
9110;BME280;4590;51.462;6.692;2023-03-01T13:59:57;102325.34;;;7.91;38.02
9110;BME280;4590;51.462;6.692;2023-03-01T14:02:22;102304.75;;;7.89;38.40
9110;BME280;4590;51.462;6.692;2023-03-01T14:04:58;102304.69;;;7.84;37.68
9110;BME280;4590;51.462;6.692;2023-03-01T14:07:25;102305.06;;;7.92;38.10
9110;BME280;4590;51.462;6.692;2023-03-01T14:09:57;102300.63;;;7.86;38.18
9110;BME280;4590;51.462;6.692;2023-03-01T14:12:29;102295.13;;;7.86;37.83
9110;BME280;4590;51.462;6.692;2023-03-01T14:15:15;102295.78;;;7.77;37.49
9110;BME280;4590;51.462;6.692;2023-03-01T14:18:07;102300.53;;;7.81;37.48
9110;BME280;4590;51.462;6.692;2023-03-01T14:20:40;102281.44;;;7.86;37.69
9110;BME280;4590;51.462;6.692;2023-03-01T14:23:16;102297.28;;;7.84;37.85
9110;BME280;4590;51.462;6.692;2023-03-01T14:25:54;102281.94;;;7.83;36.98
9110;BME280;4590;51.462;6.692;2023-03-01T14:28:29;102284.66;;;7.83;36.97
9110;BME280;4590;51.462;6.692;2023-03-01T14:30:59;102284.66;;;7.83;36.38
9110;BME280;4590;51.462;6.692;2023-03-01T14:33:27;102280.84;;;7.84;36.77
9110;BME280;4590;51.462;6.692;2023-03-01T14:36:05;102271.31;;;7.70;36.90
9110;BME280;4590;51.462;6.692;2023-03-01T14:38:37;102274.44;;;7.79;37.07
9110;BME280;4590;51.462;6.692;2023-03-01T14:41:07;102284.81;;;7.77;36.37
9110;BME280;4590;51.462;6.692;2023-03-01T14:43:33;102267.97;;;7.85;36.86
9110;BME280;4590;51.462;6.692;2023-03-01T14:46:00;102271.56;;;7.68;36.06
9110;BME280;4590;51.462;6.692;2023-03-01T14:48:27;102261.22;;;7.92;36.59
9110;BME280;4590;51.462;6.692;2023-03-01T14:50:53;102261.81;;;7.94;36.63
9110;BME280;4590;51.462;6.692;2023-03-01T14:53:27;102257.97;;;7.95;35.71
9110;BME280;4590;51.462;6.692;2023-03-01T14:55:55;102264.47;;;7.89;36.38
9110;BME280;4590;51.462;6.692;2023-03-01T14:58:24;102253.69;;;7.83;36.31
9110;BME280;4590;51.462;6.692;2023-03-01T15:01:04;102267.72;;;7.86;35.63
9110;BME280;4590;51.462;6.692;2023-03-01T15:03:44;102253.94;;;7.81;35.84
9110;BME280;4590;51.462;6.692;2023-03-01T15:06:14;102250.00;;;7.94;36.33
9110;BME280;4590;51.462;6.692;2023-03-01T15:08:52;102247.19;;;7.89;35.91
9110;BME280;4590;51.462;6.692;2023-03-01T15:11:23;102249.28;;;7.82;35.71